sensor_id;sensor_type;location;lat;lon;timestamp;P1;durP1;ratioP1;P2;durP2;ratioP2
74644;SDS011;63163;55.630;37.594;2022-09-28T00:00:38;4.3;;;2.2;;
74644;SDS011;63163;55.630;37.594;2022-09-28T00:01:41;5.2;;;2.5;;
74644;SDS011;63163;55.630;37.594;2022-09-28T00:02:42;3.4;;;2.1;;
74644;SDS011;63163;55.630;37.594;2022-09-28T00:03:42;4.3;;;2.6;;
74644;SDS011;63163;55.630;37.594;2022-09-28T00:04:43;4.1;;;2.6;;
74644;SDS011;63163;55.630;37.594;2022-09-28T00:05:43;4.1;;;2.4;;
74644;SDS011;63163;55.630;37.594;2022-09-28T00:06:44;4.7;;;2.4;;
74644;SDS011;63163;55.630;37.594;2022-09-28T00:07:44;4.9;;;2.6;;
74644;SDS011;63163;55.630;37.594;2022-09-28T00:08:46;4.5;;;2.6;;
74644;SDS011;63163;55.630;37.594;2022-09-28T00:09:48;4.1;;;2.4;;
74644;SDS011;63163;55.630;37.594;2022-09-28T00:10:53;3.9;;;2.5;;
74644;SDS011;63163;55.630;37.594;2022-09-28T00:11:53;6.1;;;2.4;;
74644;SDS011;63163;55.630;37.594;2022-09-28T00:12:55;4.5;;;2.5;;
74644;SDS011;63163;55.630;37.594;2022-09-28T00:13:57;3.6;;;2.3;;
74644;SDS011;63163;55.630;37.594;2022-09-28T00:14:59;3.8;;;2.4;;
74644;SDS011;63163;55.630;37.594;2022-09-28T00:16:01;4.6;;;2.6;;
74644;SDS011;63163;55.630;37.594;2022-09-28T00:17:02;4.5;;;2.5;;
74644;SDS011;63163;55.630;37.594;2022-09-28T00:18:02;4.2;;;2.5;;
74644;SDS011;63163;55.630;37.594;2022-09-28T00:19:03;3.6;;;2.6;;
74644;SDS011;63163;55.630;37.594;2022-09-28T00:20:05;4.8;;;2.7;;
74644;SDS011;63163;55.630;37.594;2022-09-28T00:21:07;4.2;;;2.6;;
74644;SDS011;63163;55.630;37.594;2022-09-28T00:22:08;4.3;;;2.5;;
74644;SDS011;63163;55.630;37.594;2022-09-28T00:23:08;4.4;;;2.7;;
74644;SDS011;63163;55.630;37.594;2022-09-28T00:24:10;4.4;;;2.6;;
74644;SDS011;63163;55.630;37.594;2022-09-28T00:25:11;4.7;;;2.5;;
74644;SDS011;63163;55.630;37.594;2022-09-28T00:26:12;4.2;;;2.5;;
74644;SDS011;63163;55.630;37.594;2022-09-28T00:27:12;4.6;;;2.6;;
74644;SDS011;63163;55.630;37.594;2022-09-28T00:28:13;4.2;;;2.5;;
74644;SDS011;63163;55.630;37.594;2022-09-28T00:29:15;4.5;;;2.4;;
74644;SDS011;63163;55.630;37.594;2022-09-28T00:30:16;3.7;;;2.6;;
74644;SDS011;63163;55.630;37.594;2022-09-28T00:31:16;4.8;;;2.7;;
74644;SDS011;63163;55.630;37.594;2022-09-28T00:32:18;3.9;;;2.3;;
74644;SDS011;63163;55.630;37.594;2022-09-28T00:33:20;6.9;;;2.9;;
74644;SDS011;63163;55.630;37.594;2022-09-28T00:34:21;5.6;;;2.6;;
74644;SDS011;63163;55.630;37.594;2022-09-28T00:35:22;4.0;;;3.0;;
74644;SDS011;63163;55.630;37.594;2022-09-28T00:36:22;4.8;;;2.9;;
74644;SDS011;63163;55.630;37.594;2022-09-28T00:37:23;5.5;;;2.9;;
74644;SDS011;63163;55.630;37.594;2022-09-28T00:38:25;4.0;;;2.5;;
74644;SDS011;63163;55.630;37.594;2022-09-28T00:39:26;5.5;;;3.1;;
74644;SDS011;63163;55.630;37.594;2022-09-28T00:40:26;5.1;;;2.6;;
74644;SDS011;63163;55.630;37.594;2022-09-28T00:41:27;4.2;;;2.8;;
74644;SDS011;63163;55.630;37.594;2022-09-28T00:42:28;5.7;;;2.8;;
74644;SDS011;63163;55.630;37.594;2022-09-28T00:43:29;4.7;;;3.0;;
74644;SDS011;63163;55.630;37.594;2022-09-28T00:44:31;4.6;;;2.8;;
74644;SDS011;63163;55.630;37.594;2022-09-28T00:45:33;5.4;;;2.8;;
74644;SDS011;63163;55.630;37.594;2022-09-28T00:46:34;5.0;;;2.9;;
74644;SDS011;63163;55.630;37.594;2022-09-28T00:47:38;4.9;;;2.9;;
74644;SDS011;63163;55.630;37.594;2022-09-28T00:48:41;5.0;;;2.8;;
74644;SDS011;63163;55.630;37.594;2022-09-28T00:49:46;4.6;;;2.6;;
74644;SDS011;63163;55.630;37.594;2022-09-28T00:50:46;5.3;;;2.8;;
74644;SDS011;63163;55.630;37.594;2022-09-28T00:51:47;4.7;;;2.7;;
74644;SDS011;63163;55.630;37.594;2022-09-28T00:52:49;5.4;;;2.9;;
74644;SDS011;63163;55.630;37.594;2022-09-28T00:53:52;3.6;;;2.5;;
74644;SDS011;63163;55.630;37.594;2022-09-28T00:54:53;4.4;;;2.8;;
74644;SDS011;63163;55.630;37.594;2022-09-28T00:55:55;4.6;;;2.7;;
74644;SDS011;63163;55.630;37.594;2022-09-28T00:56:56;4.5;;;2.7;;
74644;SDS011;63163;55.630;37.594;2022-09-28T00:57:57;4.8;;;2.6;;
74644;SDS011;63163;55.630;37.594;2022-09-28T00:58:59;4.2;;;2.7;;
74644;SDS011;63163;55.630;37.594;2022-09-28T01:00:00;5.1;;;2.9;;
74644;SDS011;63163;55.630;37.594;2022-09-28T01:01:03;4.5;;;2.7;;
74644;SDS011;63163;55.630;37.594;2022-09-28T01:02:04;5.1;;;2.8;;
74644;SDS011;63163;55.630;37.594;2022-09-28T01:03:05;3.5;;;2.4;;
74644;SDS011;63163;55.630;37.594;2022-09-28T01:04:05;4.4;;;2.4;;
74644;SDS011;63163;55.630;37.594;2022-09-28T01:05:06;4.3;;;2.5;;
74644;SDS011;63163;55.630;37.594;2022-09-28T01:06:10;4.6;;;2.2;;
74644;SDS011;63163;55.630;37.594;2022-09-28T01:07:14;3.6;;;2.4;;
74644;SDS011;63163;55.630;37.594;2022-09-28T01:08:17;4.8;;;2.4;;
74644;SDS011;63163;55.630;37.594;2022-09-28T01:09:20;3.8;;;2.4;;
74644;SDS011;63163;55.630;37.594;2022-09-28T01:10:21;4.9;;;2.9;;
74644;SDS011;63163;55.630;37.594;2022-09-28T01:11:22;4.2;;;2.5;;
74644;SDS011;63163;55.630;37.594;2022-09-28T01:12:23;4.7;;;2.5;;
74644;SDS011;63163;55.630;37.594;2022-09-28T01:13:24;3.6;;;2.3;;
74644;SDS011;63163;55.630;37.594;2022-09-28T01:14:25;4.5;;;2.2;;
74644;SDS011;63163;55.630;37.594;2022-09-28T01:15:27;4.6;;;2.4;;
74644;SDS011;63163;55.630;37.594;2022-09-28T01:16:29;2.8;;;2.0;;
74644;SDS011;63163;55.630;37.594;2022-09-28T01:17:35;3.2;;;2.3;;
74644;SDS011;63163;55.630;37.594;2022-09-28T01:18:38;5.2;;;2.4;;
74644;SDS011;63163;55.630;37.594;2022-09-28T01:19:46;2.9;;;2.0;;
74644;SDS011;63163;55.630;37.594;2022-09-28T01:20:55;3.7;;;2.3;;
74644;SDS011;63163;55.630;37.594;2022-09-28T01:22:03;5.3;;;2.4;;
74644;SDS011;63163;55.630;37.594;2022-09-28T01:23:14;3.3;;;2.1;;
74644;SDS011;63163;55.630;37.594;2022-09-28T01:24:23;2.8;;;1.9;;
74644;SDS011;63163;55.630;37.594;2022-09-28T01:25:33;3.0;;;2.1;;
74644;SDS011;63163;55.630;37.594;2022-09-28T01:26:40;3.8;;;2.3;;
74644;SDS011;63163;55.630;37.594;2022-09-28T01:27:46;3.7;;;2.2;;
74644;SDS011;63163;55.630;37.594;2022-09-28T01:28:49;5.7;;;2.3;;
74644;SDS011;63163;55.630;37.594;2022-09-28T01:29:53;2.8;;;1.8;;
74644;SDS011;63163;55.630;37.594;2022-09-28T01:30:58;3.6;;;1.8;;
74644;SDS011;63163;55.630;37.594;2022-09-28T01:32:07;3.8;;;2.1;;
74644;SDS011;63163;55.630;37.594;2022-09-28T01:33:11;3.8;;;2.0;;
74644;SDS011;63163;55.630;37.594;2022-09-28T01:34:14;3.5;;;2.1;;
74644;SDS011;63163;55.630;37.594;2022-09-28T01:35:16;3.0;;;1.8;;
74644;SDS011;63163;55.630;37.594;2022-09-28T01:36:18;3.6;;;2.0;;
74644;SDS011;63163;55.630;37.594;2022-09-28T01:37:22;3.2;;;2.0;;
74644;SDS011;63163;55.630;37.594;2022-09-28T01:38:25;3.2;;;2.1;;
74644;SDS011;63163;55.630;37.594;2022-09-28T01:39:28;4.5;;;2.3;;
74644;SDS011;63163;55.630;37.594;2022-09-28T01:40:31;4.2;;;2.1;;
74644;SDS011;63163;55.630;37.594;2022-09-28T01:41:32;3.1;;;2.1;;
74644;SDS011;63163;55.630;37.594;2022-09-28T01:42:36;2.7;;;2.1;;
74644;SDS011;63163;55.630;37.594;2022-09-28T01:43:39;4.0;;;1.9;;
74644;SDS011;63163;55.630;37.594;2022-09-28T01:44:42;2.7;;;2.0;;
74644;SDS011;63163;55.630;37.594;2022-09-28T01:45:45;2.8;;;1.6;;
74644;SDS011;63163;55.630;37.594;2022-09-28T01:46:48;5.6;;;2.1;;
74644;SDS011;63163;55.630;37.594;2022-09-28T01:47:49;3.5;;;2.1;;
74644;SDS011;63163;55.630;37.594;2022-09-28T01:48:51;3.2;;;1.9;;
74644;SDS011;63163;55.630;37.594;2022-09-28T01:49:55;2.9;;;2.0;;
74644;SDS011;63163;55.630;37.594;2022-09-28T01:50:58;5.4;;;2.3;;
74644;SDS011;63163;55.630;37.594;2022-09-28T01:52:02;4.8;;;2.4;;
74644;SDS011;63163;55.630;37.594;2022-09-28T01:53:07;3.7;;;2.3;;
74644;SDS011;63163;55.630;37.594;2022-09-28T01:54:11;2.7;;;1.9;;
74644;SDS011;63163;55.630;37.594;2022-09-28T01:55:12;4.1;;;2.2;;
74644;SDS011;63163;55.630;37.594;2022-09-28T01:56:17;3.4;;;2.0;;
74644;SDS011;63163;55.630;37.594;2022-09-28T01:57:20;3.5;;;2.3;;
74644;SDS011;63163;55.630;37.594;2022-09-28T01:58:23;3.1;;;1.8;;
74644;SDS011;63163;55.630;37.594;2022-09-28T01:59:28;2.9;;;1.9;;
74644;SDS011;63163;55.630;37.594;2022-09-28T02:00:29;3.5;;;1.8;;
74644;SDS011;63163;55.630;37.594;2022-09-28T02:01:30;5.8;;;1.9;;
74644;SDS011;63163;55.630;37.594;2022-09-28T02:02:34;3.0;;;2.0;;
74644;SDS011;63163;55.630;37.594;2022-09-28T02:03:38;2.2;;;1.7;;
74644;SDS011;63163;55.630;37.594;2022-09-28T02:04:41;3.1;;;1.9;;
74644;SDS011;63163;55.630;37.594;2022-09-28T02:05:45;3.0;;;2.0;;
74644;SDS011;63163;55.630;37.594;2022-09-28T02:06:49;3.8;;;2.0;;
74644;SDS011;63163;55.630;37.594;2022-09-28T02:07:52;3.6;;;2.2;;
74644;SDS011;63163;55.630;37.594;2022-09-28T02:08:55;3.4;;;2.1;;
74644;SDS011;63163;55.630;37.594;2022-09-28T02:09:59;4.8;;;2.1;;
74644;SDS011;63163;55.630;37.594;2022-09-28T02:11:02;4.0;;;2.0;;
74644;SDS011;63163;55.630;37.594;2022-09-28T02:12:05;3.6;;;2.3;;
74644;SDS011;63163;55.630;37.594;2022-09-28T02:13:08;2.3;;;1.7;;
74644;SDS011;63163;55.630;37.594;2022-09-28T02:14:10;3.6;;;2.1;;
74644;SDS011;63163;55.630;37.594;2022-09-28T02:15:14;2.6;;;1.7;;
74644;SDS011;63163;55.630;37.594;2022-09-28T02:16:17;2.9;;;1.7;;
74644;SDS011;63163;55.630;37.594;2022-09-28T02:17:19;2.8;;;1.9;;
74644;SDS011;63163;55.630;37.594;2022-09-28T02:18:20;2.1;;;1.6;;
74644;SDS011;63163;55.630;37.594;2022-09-28T02:19:21;3.7;;;2.0;;
74644;SDS011;63163;55.630;37.594;2022-09-28T02:20:22;3.7;;;2.0;;
74644;SDS011;63163;55.630;37.594;2022-09-28T02:21:24;4.1;;;2.2;;
74644;SDS011;63163;55.630;37.594;2022-09-28T02:22:27;3.4;;;2.1;;
74644;SDS011;63163;55.630;37.594;2022-09-28T02:23:28;2.0;;;1.8;;
74644;SDS011;63163;55.630;37.594;2022-09-28T02:24:32;3.2;;;2.2;;
74644;SDS011;63163;55.630;37.594;2022-09-28T02:25:36;2.8;;;2.0;;
74644;SDS011;63163;55.630;37.594;2022-09-28T02:26:39;2.0;;;1.5;;
74644;SDS011;63163;55.630;37.594;2022-09-28T02:27:42;2.2;;;1.6;;
74644;SDS011;63163;55.630;37.594;2022-09-28T02:28:44;2.8;;;1.8;;
74644;SDS011;63163;55.630;37.594;2022-09-28T02:29:45;2.4;;;1.8;;
74644;SDS011;63163;55.630;37.594;2022-09-28T02:30:45;2.8;;;1.7;;
74644;SDS011;63163;55.630;37.594;2022-09-28T02:31:46;3.0;;;2.0;;
74644;SDS011;63163;55.630;37.594;2022-09-28T02:32:47;3.5;;;1.9;;
74644;SDS011;63163;55.630;37.594;2022-09-28T02:33:49;3.7;;;1.8;;
74644;SDS011;63163;55.630;37.594;2022-09-28T02:34:50;3.1;;;2.0;;
74644;SDS011;63163;55.630;37.594;2022-09-28T02:35:51;3.3;;;1.7;;
74644;SDS011;63163;55.630;37.594;2022-09-28T02:36:51;2.9;;;1.8;;
74644;SDS011;63163;55.630;37.594;2022-09-28T02:37:53;2.6;;;1.9;;
74644;SDS011;63163;55.630;37.594;2022-09-28T02:38:54;2.3;;;1.8;;
74644;SDS011;63163;55.630;37.594;2022-09-28T02:39:56;2.3;;;1.7;;
74644;SDS011;63163;55.630;37.594;2022-09-28T02:41:00;2.6;;;1.9;;
74644;SDS011;63163;55.630;37.594;2022-09-28T02:42:05;5.3;;;2.4;;
74644;SDS011;63163;55.630;37.594;2022-09-28T02:43:09;3.5;;;2.0;;
74644;SDS011;63163;55.630;37.594;2022-09-28T02:44:14;2.6;;;1.8;;
74644;SDS011;63163;55.630;37.594;2022-09-28T02:45:19;2.5;;;1.7;;
74644;SDS011;63163;55.630;37.594;2022-09-28T02:46:26;2.4;;;1.7;;
74644;SDS011;63163;55.630;37.594;2022-09-28T02:47:31;2.9;;;1.9;;
74644;SDS011;63163;55.630;37.594;2022-09-28T02:48:41;3.1;;;2.0;;
74644;SDS011;63163;55.630;37.594;2022-09-28T02:49:46;2.1;;;1.9;;
74644;SDS011;63163;55.630;37.594;2022-09-28T02:50:50;2.2;;;1.8;;
74644;SDS011;63163;55.630;37.594;2022-09-28T02:51:59;2.9;;;1.7;;
74644;SDS011;63163;55.630;37.594;2022-09-28T02:54:07;2.8;;;2.0;;
74644;SDS011;63163;55.630;37.594;2022-09-28T02:55:16;3.5;;;1.9;;
74644;SDS011;63163;55.630;37.594;2022-09-28T02:56:23;2.7;;;1.7;;
74644;SDS011;63163;55.630;37.594;2022-09-28T02:57:29;2.5;;;1.5;;
74644;SDS011;63163;55.630;37.594;2022-09-28T02:58:32;2.2;;;1.4;;
74644;SDS011;63163;55.630;37.594;2022-09-28T02:59:39;2.3;;;1.5;;
74644;SDS011;63163;55.630;37.594;2022-09-28T03:00:43;2.3;;;1.3;;
74644;SDS011;63163;55.630;37.594;2022-09-28T03:01:47;2.2;;;1.6;;
74644;SDS011;63163;55.630;37.594;2022-09-28T03:02:51;2.2;;;1.6;;
74644;SDS011;63163;55.630;37.594;2022-09-28T03:03:57;3.0;;;1.8;;
74644;SDS011;63163;55.630;37.594;2022-09-28T03:05:17;2.8;;;1.9;;
74644;SDS011;63163;55.630;37.594;2022-09-28T03:06:20;2.4;;;1.7;;
74644;SDS011;63163;55.630;37.594;2022-09-28T03:07:23;3.0;;;1.8;;
74644;SDS011;63163;55.630;37.594;2022-09-28T03:08:24;4.1;;;2.1;;
74644;SDS011;63163;55.630;37.594;2022-09-28T03:09:27;3.3;;;1.7;;
74644;SDS011;63163;55.630;37.594;2022-09-28T03:10:32;2.3;;;1.8;;
74644;SDS011;63163;55.630;37.594;2022-09-28T03:11:35;4.7;;;1.9;;
74644;SDS011;63163;55.630;37.594;2022-09-28T03:12:37;3.3;;;1.5;;
74644;SDS011;63163;55.630;37.594;2022-09-28T03:13:38;2.3;;;1.7;;
74644;SDS011;63163;55.630;37.594;2022-09-28T03:14:39;3.0;;;1.6;;
74644;SDS011;63163;55.630;37.594;2022-09-28T03:15:39;3.4;;;1.7;;
74644;SDS011;63163;55.630;37.594;2022-09-28T03:16:41;3.3;;;1.9;;
74644;SDS011;63163;55.630;37.594;2022-09-28T03:17:42;2.4;;;1.6;;
74644;SDS011;63163;55.630;37.594;2022-09-28T03:18:42;3.1;;;1.8;;
74644;SDS011;63163;55.630;37.594;2022-09-28T03:19:43;2.7;;;1.8;;
74644;SDS011;63163;55.630;37.594;2022-09-28T03:20:43;3.4;;;1.6;;
74644;SDS011;63163;55.630;37.594;2022-09-28T03:21:44;3.6;;;1.6;;
74644;SDS011;63163;55.630;37.594;2022-09-28T03:22:45;2.7;;;1.7;;
74644;SDS011;63163;55.630;37.594;2022-09-28T03:23:45;4.0;;;2.0;;
74644;SDS011;63163;55.630;37.594;2022-09-28T03:24:47;2.8;;;1.8;;
74644;SDS011;63163;55.630;37.594;2022-09-28T03:25:47;4.2;;;1.9;;
74644;SDS011;63163;55.630;37.594;2022-09-28T03:26:48;2.1;;;1.5;;
74644;SDS011;63163;55.630;37.594;2022-09-28T03:27:48;3.8;;;2.0;;
74644;SDS011;63163;55.630;37.594;2022-09-28T03:28:49;2.8;;;1.8;;
74644;SDS011;63163;55.630;37.594;2022-09-28T03:29:49;2.6;;;1.8;;
74644;SDS011;63163;55.630;37.594;2022-09-28T03:30:50;2.4;;;1.7;;
74644;SDS011;63163;55.630;37.594;2022-09-28T03:31:50;2.3;;;1.6;;
74644;SDS011;63163;55.630;37.594;2022-09-28T03:32:55;4.4;;;2.0;;
74644;SDS011;63163;55.630;37.594;2022-09-28T03:33:56;3.3;;;2.0;;
74644;SDS011;63163;55.630;37.594;2022-09-28T03:34:56;2.5;;;1.9;;
74644;SDS011;63163;55.630;37.594;2022-09-28T03:35:57;2.6;;;1.8;;
74644;SDS011;63163;55.630;37.594;2022-09-28T03:36:58;1.8;;;1.3;;
74644;SDS011;63163;55.630;37.594;2022-09-28T03:37:58;4.6;;;1.6;;
74644;SDS011;63163;55.630;37.594;2022-09-28T03:38:59;2.1;;;1.6;;
74644;SDS011;63163;55.630;37.594;2022-09-28T03:39:59;3.1;;;1.7;;
74644;SDS011;63163;55.630;37.594;2022-09-28T03:41:00;2.6;;;1.6;;
74644;SDS011;63163;55.630;37.594;2022-09-28T03:42:00;2.5;;;1.4;;
74644;SDS011;63163;55.630;37.594;2022-09-28T03:43:01;2.6;;;1.8;;
74644;SDS011;63163;55.630;37.594;2022-09-28T03:44:02;2.3;;;1.6;;
74644;SDS011;63163;55.630;37.594;2022-09-28T03:45:03;2.2;;;1.6;;
74644;SDS011;63163;55.630;37.594;2022-09-28T03:46:03;2.5;;;1.8;;
74644;SDS011;63163;55.630;37.594;2022-09-28T03:47:06;3.5;;;1.7;;
74644;SDS011;63163;55.630;37.594;2022-09-28T03:48:06;3.1;;;1.8;;
74644;SDS011;63163;55.630;37.594;2022-09-28T03:49:07;2.7;;;1.8;;
74644;SDS011;63163;55.630;37.594;2022-09-28T03:50:08;2.6;;;1.7;;
74644;SDS011;63163;55.630;37.594;2022-09-28T03:51:09;2.6;;;1.8;;
74644;SDS011;63163;55.630;37.594;2022-09-28T03:52:10;3.7;;;1.8;;
74644;SDS011;63163;55.630;37.594;2022-09-28T03:53:11;4.4;;;1.6;;
74644;SDS011;63163;55.630;37.594;2022-09-28T03:54:11;2.3;;;1.6;;
74644;SDS011;63163;55.630;37.594;2022-09-28T03:55:12;2.5;;;1.5;;
74644;SDS011;63163;55.630;37.594;2022-09-28T03:56:13;2.2;;;1.5;;
74644;SDS011;63163;55.630;37.594;2022-09-28T03:57:14;3.2;;;1.6;;
74644;SDS011;63163;55.630;37.594;2022-09-28T03:58:15;2.6;;;1.8;;
74644;SDS011;63163;55.630;37.594;2022-09-28T03:59:15;3.2;;;1.7;;
74644;SDS011;63163;55.630;37.594;2022-09-28T04:00:16;3.5;;;1.7;;
74644;SDS011;63163;55.630;37.594;2022-09-28T04:01:17;3.4;;;2.0;;
74644;SDS011;63163;55.630;37.594;2022-09-28T04:02:17;2.9;;;1.6;;
74644;SDS011;63163;55.630;37.594;2022-09-28T04:03:18;3.9;;;1.9;;
74644;SDS011;63163;55.630;37.594;2022-09-28T04:04:18;2.5;;;1.6;;
74644;SDS011;63163;55.630;37.594;2022-09-28T04:05:19;2.8;;;1.7;;
74644;SDS011;63163;55.630;37.594;2022-09-28T04:06:19;2.1;;;1.6;;
74644;SDS011;63163;55.630;37.594;2022-09-28T04:07:20;3.6;;;1.7;;
74644;SDS011;63163;55.630;37.594;2022-09-28T04:08:20;3.0;;;1.6;;
74644;SDS011;63163;55.630;37.594;2022-09-28T04:09:21;3.3;;;1.8;;
74644;SDS011;63163;55.630;37.594;2022-09-28T04:10:21;1.5;;;1.1;;
74644;SDS011;63163;55.630;37.594;2022-09-28T04:11:22;2.8;;;1.8;;
74644;SDS011;63163;55.630;37.594;2022-09-28T04:12:23;1.3;;;1.2;;
74644;SDS011;63163;55.630;37.594;2022-09-28T04:13:24;3.7;;;1.8;;
74644;SDS011;63163;55.630;37.594;2022-09-28T04:14:24;2.5;;;1.5;;
74644;SDS011;63163;55.630;37.594;2022-09-28T04:15:25;2.7;;;1.7;;
74644;SDS011;63163;55.630;37.594;2022-09-28T04:16:25;3.4;;;1.9;;
74644;SDS011;63163;55.630;37.594;2022-09-28T04:17:26;3.2;;;1.8;;
74644;SDS011;63163;55.630;37.594;2022-09-28T04:18:27;3.1;;;1.8;;
74644;SDS011;63163;55.630;37.594;2022-09-28T04:19:27;3.1;;;1.8;;
74644;SDS011;63163;55.630;37.594;2022-09-28T04:20:28;4.0;;;1.9;;
74644;SDS011;63163;55.630;37.594;2022-09-28T04:21:28;2.3;;;1.7;;
74644;SDS011;63163;55.630;37.594;2022-09-28T04:22:29;2.3;;;1.7;;
74644;SDS011;63163;55.630;37.594;2022-09-28T04:23:30;2.7;;;1.4;;
74644;SDS011;63163;55.630;37.594;2022-09-28T04:24:31;4.1;;;2.0;;
74644;SDS011;63163;55.630;37.594;2022-09-28T04:25:32;3.3;;;1.6;;
74644;SDS011;63163;55.630;37.594;2022-09-28T04:26:33;2.8;;;1.7;;
74644;SDS011;63163;55.630;37.594;2022-09-28T04:27:33;4.0;;;1.9;;
74644;SDS011;63163;55.630;37.594;2022-09-28T04:30:41;2.5;;;1.6;;
74644;SDS011;63163;55.630;37.594;2022-09-28T04:31:42;2.8;;;1.8;;
74644;SDS011;63163;55.630;37.594;2022-09-28T04:32:44;2.5;;;1.7;;
74644;SDS011;63163;55.630;37.594;2022-09-28T04:33:45;2.2;;;1.6;;
74644;SDS011;63163;55.630;37.594;2022-09-28T04:34:45;3.9;;;1.6;;
74644;SDS011;63163;55.630;37.594;2022-09-28T04:35:46;3.8;;;1.9;;
74644;SDS011;63163;55.630;37.594;2022-09-28T04:36:47;3.1;;;1.8;;
74644;SDS011;63163;55.630;37.594;2022-09-28T04:37:47;3.8;;;1.9;;
74644;SDS011;63163;55.630;37.594;2022-09-28T04:38:48;4.2;;;1.9;;
74644;SDS011;63163;55.630;37.594;2022-09-28T04:39:48;3.2;;;2.0;;
74644;SDS011;63163;55.630;37.594;2022-09-28T04:40:49;3.1;;;2.1;;
74644;SDS011;63163;55.630;37.594;2022-09-28T04:41:49;3.9;;;1.9;;
74644;SDS011;63163;55.630;37.594;2022-09-28T04:42:53;2.3;;;1.5;;
74644;SDS011;63163;55.630;37.594;2022-09-28T04:43:54;3.5;;;2.0;;
74644;SDS011;63163;55.630;37.594;2022-09-28T04:44:54;3.1;;;2.0;;
74644;SDS011;63163;55.630;37.594;2022-09-28T04:45:57;3.2;;;1.8;;
74644;SDS011;63163;55.630;37.594;2022-09-28T04:46:58;3.6;;;2.0;;
74644;SDS011;63163;55.630;37.594;2022-09-28T04:47:58;3.2;;;2.1;;
74644;SDS011;63163;55.630;37.594;2022-09-28T04:48:59;2.6;;;1.9;;
74644;SDS011;63163;55.630;37.594;2022-09-28T04:49:59;2.9;;;1.8;;
74644;SDS011;63163;55.630;37.594;2022-09-28T04:51:00;4.1;;;2.2;;
74644;SDS011;63163;55.630;37.594;2022-09-28T04:52:01;4.2;;;1.8;;
74644;SDS011;63163;55.630;37.594;2022-09-28T04:53:02;3.8;;;2.4;;
74644;SDS011;63163;55.630;37.594;2022-09-28T04:54:02;3.4;;;2.0;;
74644;SDS011;63163;55.630;37.594;2022-09-28T04:55:03;4.0;;;2.2;;
74644;SDS011;63163;55.630;37.594;2022-09-28T04:56:04;3.1;;;2.0;;
74644;SDS011;63163;55.630;37.594;2022-09-28T04:57:05;3.5;;;1.9;;
74644;SDS011;63163;55.630;37.594;2022-09-28T04:58:06;3.2;;;1.8;;
74644;SDS011;63163;55.630;37.594;2022-09-28T04:59:06;3.3;;;2.0;;
74644;SDS011;63163;55.630;37.594;2022-09-28T05:00:07;3.1;;;2.0;;
74644;SDS011;63163;55.630;37.594;2022-09-28T05:01:11;3.7;;;2.2;;
74644;SDS011;63163;55.630;37.594;2022-09-28T05:02:11;3.5;;;2.0;;
74644;SDS011;63163;55.630;37.594;2022-09-28T05:03:14;4.8;;;2.0;;
74644;SDS011;63163;55.630;37.594;2022-09-28T05:04:14;3.6;;;1.8;;
74644;SDS011;63163;55.630;37.594;2022-09-28T05:05:15;2.9;;;2.1;;
74644;SDS011;63163;55.630;37.594;2022-09-28T05:06:16;3.1;;;1.9;;
74644;SDS011;63163;55.630;37.594;2022-09-28T05:07:16;2.9;;;1.9;;
74644;SDS011;63163;55.630;37.594;2022-09-28T05:08:17;3.8;;;2.1;;
74644;SDS011;63163;55.630;37.594;2022-09-28T05:09:17;4.0;;;2.1;;
74644;SDS011;63163;55.630;37.594;2022-09-28T05:10:18;3.4;;;2.2;;
74644;SDS011;63163;55.630;37.594;2022-09-28T05:11:19;4.6;;;2.4;;
74644;SDS011;63163;55.630;37.594;2022-09-28T05:12:20;3.9;;;2.1;;
74644;SDS011;63163;55.630;37.594;2022-09-28T05:13:21;6.0;;;2.3;;
74644;SDS011;63163;55.630;37.594;2022-09-28T05:14:21;3.5;;;2.1;;
74644;SDS011;63163;55.630;37.594;2022-09-28T05:15:22;3.8;;;2.1;;
74644;SDS011;63163;55.630;37.594;2022-09-28T05:16:22;3.2;;;2.0;;
74644;SDS011;63163;55.630;37.594;2022-09-28T05:17:24;5.6;;;2.7;;
74644;SDS011;63163;55.630;37.594;2022-09-28T05:18:25;3.7;;;2.3;;
74644;SDS011;63163;55.630;37.594;2022-09-28T05:19:26;3.3;;;1.9;;
74644;SDS011;63163;55.630;37.594;2022-09-28T05:20:26;4.8;;;2.7;;
74644;SDS011;63163;55.630;37.594;2022-09-28T05:21:27;10.8;;;3.4;;
74644;SDS011;63163;55.630;37.594;2022-09-28T05:22:29;6.3;;;2.4;;
74644;SDS011;63163;55.630;37.594;2022-09-28T05:23:29;4.4;;;2.3;;
74644;SDS011;63163;55.630;37.594;2022-09-28T05:24:30;3.8;;;2.2;;
74644;SDS011;63163;55.630;37.594;2022-09-28T05:25:30;3.9;;;2.1;;
74644;SDS011;63163;55.630;37.594;2022-09-28T05:26:33;8.6;;;3.0;;
74644;SDS011;63163;55.630;37.594;2022-09-28T05:27:33;5.1;;;2.4;;
74644;SDS011;63163;55.630;37.594;2022-09-28T05:28:34;3.3;;;1.9;;
74644;SDS011;63163;55.630;37.594;2022-09-28T05:29:34;4.1;;;2.2;;
74644;SDS011;63163;55.630;37.594;2022-09-28T05:30:35;4.8;;;2.3;;
74644;SDS011;63163;55.630;37.594;2022-09-28T05:31:35;3.9;;;2.2;;
74644;SDS011;63163;55.630;37.594;2022-09-28T05:32:38;4.3;;;2.1;;
74644;SDS011;63163;55.630;37.594;2022-09-28T05:33:39;3.6;;;2.1;;
74644;SDS011;63163;55.630;37.594;2022-09-28T05:34:39;4.6;;;2.0;;
74644;SDS011;63163;55.630;37.594;2022-09-28T05:35:40;4.9;;;2.0;;
74644;SDS011;63163;55.630;37.594;2022-09-28T05:36:40;4.1;;;2.2;;
74644;SDS011;63163;55.630;37.594;2022-09-28T05:37:42;4.0;;;2.2;;
74644;SDS011;63163;55.630;37.594;2022-09-28T05:38:42;3.7;;;2.1;;
74644;SDS011;63163;55.630;37.594;2022-09-28T05:39:43;3.4;;;1.9;;
74644;SDS011;63163;55.630;37.594;2022-09-28T05:40:43;4.1;;;2.2;;
74644;SDS011;63163;55.630;37.594;2022-09-28T05:41:44;3.3;;;2.3;;
74644;SDS011;63163;55.630;37.594;2022-09-28T05:42:45;4.2;;;2.2;;
74644;SDS011;63163;55.630;37.594;2022-09-28T05:43:45;3.7;;;1.9;;
74644;SDS011;63163;55.630;37.594;2022-09-28T05:44:46;3.0;;;1.9;;
74644;SDS011;63163;55.630;37.594;2022-09-28T05:45:46;3.5;;;2.3;;
74644;SDS011;63163;55.630;37.594;2022-09-28T05:46:47;3.9;;;2.0;;
74644;SDS011;63163;55.630;37.594;2022-09-28T05:47:47;4.8;;;2.3;;
74644;SDS011;63163;55.630;37.594;2022-09-28T05:48:48;4.5;;;2.2;;
74644;SDS011;63163;55.630;37.594;2022-09-28T05:49:50;4.1;;;2.2;;
74644;SDS011;63163;55.630;37.594;2022-09-28T05:50:51;3.8;;;2.1;;
74644;SDS011;63163;55.630;37.594;2022-09-28T05:51:51;3.0;;;1.9;;
74644;SDS011;63163;55.630;37.594;2022-09-28T05:52:59;3.7;;;2.2;;
74644;SDS011;63163;55.630;37.594;2022-09-28T05:54:00;4.5;;;2.1;;
74644;SDS011;63163;55.630;37.594;2022-09-28T05:55:00;3.4;;;2.1;;
74644;SDS011;63163;55.630;37.594;2022-09-28T05:56:01;3.5;;;2.2;;
74644;SDS011;63163;55.630;37.594;2022-09-28T05:57:03;3.6;;;1.9;;
74644;SDS011;63163;55.630;37.594;2022-09-28T05:58:05;3.6;;;2.1;;
74644;SDS011;63163;55.630;37.594;2022-09-28T05:59:05;3.3;;;2.2;;
74644;SDS011;63163;55.630;37.594;2022-09-28T06:00:06;4.8;;;2.4;;
74644;SDS011;63163;55.630;37.594;2022-09-28T06:01:08;4.5;;;2.2;;
74644;SDS011;63163;55.630;37.594;2022-09-28T06:02:08;5.7;;;2.3;;
74644;SDS011;63163;55.630;37.594;2022-09-28T06:03:10;5.1;;;2.6;;
74644;SDS011;63163;55.630;37.594;2022-09-28T06:04:10;4.3;;;2.3;;
74644;SDS011;63163;55.630;37.594;2022-09-28T06:05:11;5.1;;;2.4;;
74644;SDS011;63163;55.630;37.594;2022-09-28T06:06:12;4.4;;;2.4;;
74644;SDS011;63163;55.630;37.594;2022-09-28T06:07:12;5.2;;;2.4;;
74644;SDS011;63163;55.630;37.594;2022-09-28T06:08:13;3.5;;;2.6;;
74644;SDS011;63163;55.630;37.594;2022-09-28T06:09:13;4.4;;;2.5;;
74644;SDS011;63163;55.630;37.594;2022-09-28T06:10:14;3.4;;;2.2;;
74644;SDS011;63163;55.630;37.594;2022-09-28T06:11:14;4.0;;;2.4;;
74644;SDS011;63163;55.630;37.594;2022-09-28T06:12:15;3.9;;;2.4;;
74644;SDS011;63163;55.630;37.594;2022-09-28T06:13:15;5.6;;;2.3;;
74644;SDS011;63163;55.630;37.594;2022-09-28T06:14:16;4.3;;;2.4;;
74644;SDS011;63163;55.630;37.594;2022-09-28T06:15:17;6.3;;;2.4;;
74644;SDS011;63163;55.630;37.594;2022-09-28T06:16:17;3.3;;;2.2;;
74644;SDS011;63163;55.630;37.594;2022-09-28T06:17:18;4.3;;;2.4;;
74644;SDS011;63163;55.630;37.594;2022-09-28T06:18:19;4.3;;;2.3;;
74644;SDS011;63163;55.630;37.594;2022-09-28T06:19:19;4.7;;;2.4;;
74644;SDS011;63163;55.630;37.594;2022-09-28T06:20:20;4.5;;;2.3;;
74644;SDS011;63163;55.630;37.594;2022-09-28T06:21:20;4.5;;;2.5;;